Terminal Aerodrome Forecast
Issued by NWS

Home | Current Version | Previous Version | Text Only | Print | Product List | Glossary Off
Versions: 1 2 3 4 5 6 7 8 9 10 11 12 13 14 15 16

000
FTUS42 KMHX 290520
TAFPGV
TAF
KPGV 290520Z 2906/3006 14002KT P6SM BKN250
     FM290800 00000KT 5SM BR SCT200
     FM291200 13007KT P6SM SCT060
     FM300300 16004KT P6SM SCT250
      AMD LTD TO CLD VIS AND WIND=

USA.gov is the U.S. government's official web portal to all federal, state and local government web resources and services.